Time;durP1;ratioP1;P1;durP2;ratioP2;P2;SDS_P1;SDS_P2;PMS_P1;PMS_P2;Temp;Humidity;BMP_temperature;BMP_pressure;BME280_temperature;BME280_humidity;BME280_pressure;Samples;Min_cycle;Max_cycle;Signal;HPM_P1;HPM_P2
2022/07/22 00:02:11;;;;;;;;;;;22.20;95.70;;;;;;5115555;28;19919;-49
2022/07/22 00:04:37;;;;;;;;;;;22.20;95.80;;;;;;5116776;28;19912;-50
2022/07/22 00:07:03;;;;;;;;;;;22.30;95.70;;;;;;5115975;28;19911;-54
2022/07/22 00:09:29;;;;;;;;;;;22.20;95.80;;;;;;5115417;28;19912;-48
2022/07/22 00:11:54;;;;;;;;;;;22.40;95.50;;;;;;5114844;28;19927;-49
2022/07/22 00:14:20;;;;;;;;;;;22.40;95.50;;;;;;5115631;28;19912;-51
2022/07/22 00:16:45;;;;;;;;;;;22.50;95.20;;;;;;5096341;28;19919;-51
2022/07/22 00:19:11;;;;;;;;;;;22.40;95.60;;;;;;5097498;28;19912;-51
2022/07/22 00:21:37;;;;;;;;;;;22.50;95.40;;;;;;5116046;28;19915;-52
2022/07/22 00:24:03;;;;;;;;;;;22.50;95.40;;;;;;5115834;28;19922;-49
2022/07/22 00:26:28;;;;;;;;;;;22.30;96.00;;;;;;5098158;28;19908;-52
2022/07/22 00:28:54;;;;;;;;;;;22.20;96.10;;;;;;5095343;28;19979;-51
2022/07/22 00:31:19;;;;;;;;;;;22.20;96.20;;;;;;5095740;28;19912;-50
2022/07/22 00:33:45;;;;;;;;;;;22.10;96.40;;;;;;5077421;28;19957;-50
2022/07/22 00:36:11;;;;;;;;;;;22.00;96.70;;;;;;5095852;28;20379;-52
2022/07/22 00:38:37;;;;;;;;;;;22.10;96.40;;;;;;5095507;28;19969;-52
2022/07/22 00:41:03;;;;;;;;;;;22.20;96.20;;;;;;5095515;28;20371;-53
2022/07/22 00:43:47;;;;;;;;;;;22.20;96.00;;;;;;5076703;28;19957;-51
2022/07/22 00:46:13;;;;;;;;;;;22.10;96.40;;;;;;5095364;28;19960;-52
2022/07/22 00:48:38;;;;;;;;;;;22.00;96.70;;;;;;5094900;28;20392;-51
2022/07/22 00:51:04;;;;;;;;;;;22.00;96.50;;;;;;5094915;28;20453;-54
2022/07/22 00:53:29;;;;;;;;;;;22.10;96.40;;;;;;5093870;28;19912;-49
2022/07/22 00:55:55;;;;;;;;;;;22.10;96.60;;;;;;5094243;28;19912;-50
2022/07/22 00:58:21;;;;;;;;;;;22.10;96.30;;;;;;5076022;28;20307;-48
2022/07/22 01:00:47;;;;;;;;;;;21.90;96.60;;;;;;5094919;28;20006;-54
2022/07/22 01:03:13;;;;;;;;;;;21.80;97.10;;;;;;5094589;28;20036;-53
2022/07/22 01:05:39;;;;;;;;;;;21.90;96.80;;;;;;5094818;28;20379;-49
2022/07/22 01:08:08;;;;;;;;;;;21.90;96.70;;;;;;5094104;28;19967;-52
2022/07/22 01:10:34;;;;;;;;;;;21.80;97.00;;;;;;5102972;28;19908;-48
2022/07/22 01:12:59;;;;;;;;;;;21.70;97.20;;;;;;5114277;28;19907;-47
2022/07/22 01:15:25;;;;;;;;;;;21.60;97.40;;;;;;5114418;28;20300;-52
2022/07/22 01:17:50;;;;;;;;;;;21.70;97.30;;;;;;5113290;28;19928;-52
2022/07/22 01:20:16;;;;;;;;;;;21.70;97.50;;;;;;5113692;28;19930;-48
2022/07/22 01:22:41;;;;;;;;;;;21.70;97.20;;;;;;5113156;28;20375;-49
2022/07/22 01:25:07;;;;;;;;;;;21.50;97.80;;;;;;5107812;28;19991;-50
2022/07/22 01:27:33;;;;;;;;;;;21.40;97.80;;;;;;5093870;28;19937;-49
2022/07/22 01:29:58;;;;;;;;;;;21.50;97.80;;;;;;5094854;28;19922;-50
2022/07/22 01:32:24;;;;;;;;;;;21.60;97.50;;;;;;5076464;28;19913;-49
2022/07/22 01:34:50;;;;;;;;;;;21.60;97.40;;;;;;5094546;28;19908;-51
2022/07/22 01:37:15;;;;;;;;;;;21.40;97.90;;;;;;5092983;28;20393;-53
2022/07/22 01:39:41;;;;;;;;;;;21.30;98.20;;;;;;5093883;28;19908;-47
2022/07/22 01:42:06;;;;;;;;;;;21.20;98.40;;;;;;5094350;28;19926;-49
2022/07/22 01:44:32;;;;;;;;;;;21.10;98.80;;;;;;5106481;28;20062;-48
2022/07/22 01:46:58;;;;;;;;;;;21.00;98.90;;;;;;5113045;28;19918;-49
2022/07/22 01:49:24;;;;;;;;;;;21.00;99.20;;;;;;5112958;28;20296;-50
2022/07/22 01:51:49;;;;;;;;;;;20.90;99.20;;;;;;5113991;28;19911;-47
2022/07/22 01:54:15;;;;;;;;;;;20.80;99.70;;;;;;5113635;28;19967;-52
2022/07/22 01:56:41;;;;;;;;;;;20.70;99.80;;;;;;5113242;28;20006;-47
2022/07/22 01:59:07;;;;;;;;;;;20.80;99.70;;;;;;5113423;28;20263;-49
2022/07/22 02:01:33;;;;;;;;;;;21.10;99.40;;;;;;5113317;28;20212;-51
2022/07/22 02:03:58;;;;;;;;;;;21.20;99.20;;;;;;5113307;28;19914;-55
2022/07/22 02:06:24;;;;;;;;;;;21.30;98.90;;;;;;5113873;28;20004;-50
2022/07/22 02:08:49;;;;;;;;;;;21.30;99.00;;;;;;5113905;28;20320;-51
2022/07/22 02:11:15;;;;;;;;;;;21.40;98.90;;;;;;5094970;28;20310;-47
2022/07/22 02:13:40;;;;;;;;;;;21.40;98.80;;;;;;5113263;28;19937;-52
2022/07/22 02:16:06;;;;;;;;;;;21.50;98.70;;;;;;5113274;28;19912;-47
2022/07/22 02:18:31;;;;;;;;;;;21.50;98.60;;;;;;5095320;28;19912;-49
2022/07/22 02:20:57;;;;;;;;;;;21.30;99.10;;;;;;5095348;28;19937;-49
2022/07/22 02:23:22;;;;;;;;;;;21.30;99.00;;;;;;5112964;28;20035;-49
2022/07/22 02:25:48;;;;;;;;;;;21.30;98.80;;;;;;5112960;28;19972;-47
2022/07/22 02:28:13;;;;;;;;;;;21.10;99.30;;;;;;5112955;28;20336;-48
2022/07/22 02:30:39;;;;;;;;;;;21.00;99.20;;;;;;5095482;28;20423;-52
2022/07/22 02:33:05;;;;;;;;;;;21.10;99.30;;;;;;5113981;28;20002;-51
2022/07/22 02:35:30;;;;;;;;;;;21.10;99.00;;;;;;5114704;28;20022;-47
2022/07/22 02:37:56;;;;;;;;;;;21.10;99.10;;;;;;5117116;28;19915;-47
2022/07/22 02:40:21;;;;;;;;;;;21.10;99.10;;;;;;5116800;28;19947;-47
2022/07/22 02:42:47;;;;;;;;;;;21.20;98.90;;;;;;5116867;28;20030;-51
2022/07/22 02:45:12;;;;;;;;;;;21.10;99.10;;;;;;5136619;27;19912;-50
2022/07/22 02:47:45;;;;;;;;;;;21.10;98.90;;;;;;5137409;27;20006;-50
2022/07/22 02:50:11;;;;;;;;;;;21.20;99.00;;;;;;5136707;27;19916;-48
2022/07/22 02:52:36;;;;;;;;;;;21.00;99.30;;;;;;5136964;27;19980;-48
2022/07/22 02:55:02;;;;;;;;;;;21.00;99.20;;;;;;5137026;27;19911;-49
2022/07/22 02:57:28;;;;;;;;;;;20.80;99.70;;;;;;5137211;27;19911;-52
2022/07/22 02:59:53;;;;;;;;;;;20.80;99.70;;;;;;5119663;27;19912;-51
2022/07/22 03:02:19;;;;;;;;;;;20.70;99.90;;;;;;5137589;27;19966;-48
2022/07/22 03:04:44;;;;;;;;;;;20.50;99.90;;;;;;5138254;27;20018;-53
2022/07/22 03:07:10;;;;;;;;;;;20.60;99.90;;;;;;5138164;27;19964;-49
2022/07/22 03:09:35;;;;;;;;;;;20.40;99.90;;;;;;5136007;27;19961;-47
2022/07/22 03:12:01;;;;;;;;;;;20.40;99.90;;;;;;5121394;27;19957;-49
2022/07/22 03:14:26;;;;;;;;;;;20.50;99.90;;;;;;5137668;27;19939;-49
2022/07/22 03:16:52;;;;;;;;;;;20.60;99.90;;;;;;5136749;27;19939;-52
2022/07/22 03:19:17;;;;;;;;;;;20.60;99.90;;;;;;5136413;27;19918;-52
2022/07/22 03:21:43;;;;;;;;;;;20.50;99.90;;;;;;5136795;27;19998;-54
2022/07/22 03:24:08;;;;;;;;;;;20.50;99.90;;;;;;5136653;27;19920;-50
2022/07/22 03:26:34;;;;;;;;;;;20.50;99.90;;;;;;5136791;27;19919;-52
2022/07/22 03:28:59;;;;;;;;;;;20.40;99.90;;;;;;5136287;27;19915;-49
2022/07/22 03:31:25;;;;;;;;;;;20.50;99.90;;;;;;5136333;27;20332;-51
2022/07/22 03:33:50;;;;;;;;;;;20.60;99.90;;;;;;5136331;27;20398;-51
2022/07/22 03:36:16;;;;;;;;;;;20.60;99.90;;;;;;5136426;27;20349;-48
2022/07/22 03:38:42;;;;;;;;;;;20.40;99.90;;;;;;5137111;27;19907;-54
2022/07/22 03:41:07;;;;;;;;;;;20.40;99.90;;;;;;5137158;27;20275;-53
2022/07/22 03:43:33;;;;;;;;;;;20.50;99.90;;;;;;5130807;27;19927;-53
2022/07/22 03:45:59;;;;;;;;;;;20.40;99.90;;;;;;5115265;28;19912;-51
2022/07/22 03:48:25;;;;;;;;;;;20.60;99.90;;;;;;5115540;28;20022;-50
2022/07/22 03:50:51;;;;;;;;;;;20.70;99.90;;;;;;5115372;28;19939;-50
2022/07/22 03:53:17;;;;;;;;;;;20.90;99.90;;;;;;5115595;28;19911;-49
2022/07/22 03:55:42;;;;;;;;;;;20.80;99.90;;;;;;5115927;28;19912;-49
2022/07/22 03:58:08;;;;;;;;;;;20.80;99.90;;;;;;5115342;28;19912;-50
2022/07/22 04:00:33;;;;;;;;;;;20.70;99.90;;;;;;5115313;28;19912;-48
2022/07/22 04:02:59;;;;;;;;;;;20.80;99.90;;;;;;5116193;28;19908;-48
2022/07/22 04:05:25;;;;;;;;;;;20.80;99.90;;;;;;5116675;28;20359;-48
2022/07/22 04:07:50;;;;;;;;;;;20.70;99.90;;;;;;5116355;28;19919;-55
2022/07/22 04:10:16;;;;;;;;;;;20.80;99.90;;;;;;5113499;28;19912;-49
2022/07/22 04:12:41;;;;;;;;;;;21.00;99.90;;;;;;5111678;28;20014;-53
2022/07/22 04:15:07;;;;;;;;;;;20.90;99.90;;;;;;5115907;28;19987;-53
2022/07/22 04:17:33;;;;;;;;;;;21.00;99.90;;;;;;5114726;28;19914;-52
2022/07/22 04:20:00;;;;;;;;;;;21.10;99.50;;;;;;5115451;28;19914;-53
2022/07/22 04:22:26;;;;;;;;;;;21.20;99.60;;;;;;5114498;28;20250;-49
2022/07/22 04:24:52;;;;;;;;;;;21.20;99.50;;;;;;5116057;28;19923;-51
2022/07/22 04:27:17;;;;;;;;;;;21.20;99.50;;;;;;5115088;28;19926;-50
2022/07/22 04:29:43;;;;;;;;;;;21.30;99.40;;;;;;5114968;28;20363;-52
2022/07/22 04:32:08;;;;;;;;;;;21.40;98.90;;;;;;5114565;28;19912;-47
2022/07/22 04:34:34;;;;;;;;;;;21.30;99.20;;;;;;5114860;28;19912;-48
2022/07/22 04:36:59;;;;;;;;;;;21.30;99.40;;;;;;5096368;28;19983;-53
2022/07/22 04:39:25;;;;;;;;;;;21.40;99.20;;;;;;5114463;28;20050;-47
2022/07/22 04:41:50;;;;;;;;;;;21.40;99.10;;;;;;5114755;28;19919;-50
2022/07/22 04:44:16;;;;;;;;;;;21.30;99.40;;;;;;5125738;27;20020;-49
2022/07/22 04:46:41;;;;;;;;;;;21.00;99.80;;;;;;5134815;27;19911;-52
2022/07/22 04:49:07;;;;;;;;;;;21.10;99.90;;;;;;5135018;27;20453;-50
2022/07/22 04:51:32;;;;;;;;;;;21.30;99.30;;;;;;5134682;27;19980;-48
2022/07/22 04:53:58;;;;;;;;;;;21.20;99.80;;;;;;5135135;27;19980;-52
2022/07/22 04:56:23;;;;;;;;;;;21.10;99.90;;;;;;5135305;27;20428;-51
2022/07/22 04:58:49;;;;;;;;;;;21.20;99.80;;;;;;5133790;27;20360;-52
2022/07/22 05:01:14;;;;;;;;;;;21.20;99.90;;;;;;5134524;27;19968;-51
2022/07/22 05:03:40;;;;;;;;;;;21.20;99.90;;;;;;5134340;27;20430;-49
2022/07/22 05:06:06;;;;;;;;;;;21.20;99.80;;;;;;5134507;27;19907;-50
2022/07/22 05:08:31;;;;;;;;;;;21.20;99.90;;;;;;5134468;27;19967;-47
2022/07/22 05:10:57;;;;;;;;;;;21.40;99.60;;;;;;5117333;27;19912;-51
2022/07/22 05:13:22;;;;;;;;;;;21.50;99.50;;;;;;5134117;27;20045;-52
2022/07/22 05:15:49;;;;;;;;;;;21.30;99.80;;;;;;5116702;27;20015;-50
2022/07/22 05:18:14;;;;;;;;;;;21.30;99.80;;;;;;5134365;27;20396;-48
2022/07/22 05:20:40;;;;;;;;;;;21.30;99.80;;;;;;5134568;27;19947;-49
2022/07/22 05:23:05;;;;;;;;;;;21.40;99.80;;;;;;5134614;27;19921;-51
2022/07/22 05:25:31;;;;;;;;;;;21.60;99.20;;;;;;5134078;27;19908;-53
2022/07/22 05:27:56;;;;;;;;;;;21.50;99.50;;;;;;5134621;27;20289;-50
2022/07/22 05:30:22;;;;;;;;;;;21.50;99.70;;;;;;5134365;27;20352;-49
2022/07/22 05:32:47;;;;;;;;;;;21.60;99.50;;;;;;5134256;27;19933;-51
2022/07/22 05:35:13;;;;;;;;;;;21.70;99.10;;;;;;5134334;27;19912;-50
2022/07/22 05:37:39;;;;;;;;;;;21.70;99.00;;;;;;5133964;27;19919;-48
2022/07/22 05:40:04;;;;;;;;;;;21.70;99.00;;;;;;5134266;27;19916;-52
2022/07/22 05:42:30;;;;;;;;;;;21.70;98.90;;;;;;5134000;27;19919;-47
2022/07/22 05:44:56;;;;;;;;;;;21.60;99.10;;;;;;5116895;27;19912;-53
2022/07/22 05:47:21;;;;;;;;;;;21.60;99.10;;;;;;5114276;28;19915;-50
2022/07/22 05:49:47;;;;;;;;;;;21.60;99.10;;;;;;5113299;28;20303;-50
2022/07/22 05:52:12;;;;;;;;;;;21.50;99.20;;;;;;5113306;28;20299;-50
2022/07/22 05:54:39;;;;;;;;;;;21.60;99.50;;;;;;5113130;28;19912;-49
2022/07/22 05:57:08;;;;;;;;;;;21.70;99.10;;;;;;5113394;28;19912;-49
2022/07/22 05:59:33;;;;;;;;;;;21.40;99.70;;;;;;5113076;28;20350;-53
2022/07/22 06:01:59;;;;;;;;;;;21.30;99.80;;;;;;5113582;28;19958;-48
2022/07/22 06:04:24;;;;;;;;;;;21.30;99.90;;;;;;5112916;28;20375;-49
2022/07/22 06:06:50;;;;;;;;;;;21.50;99.50;;;;;;5113119;28;19915;-49
2022/07/22 06:09:15;;;;;;;;;;;21.40;99.70;;;;;;5112625;28;19911;-50
2022/07/22 06:11:41;;;;;;;;;;;21.50;99.60;;;;;;5112918;28;19919;-48
2022/07/22 06:14:07;;;;;;;;;;;21.40;99.90;;;;;;5112802;28;19912;-52
2022/07/22 06:16:34;;;;;;;;;;;21.50;99.90;;;;;;5113065;28;20377;-52
2022/07/22 06:18:59;;;;;;;;;;;21.50;99.90;;;;;;5095191;28;19918;-47
2022/07/22 06:21:25;;;;;;;;;;;21.70;99.60;;;;;;5113209;28;19916;-51
2022/07/22 06:23:50;;;;;;;;;;;21.70;99.40;;;;;;5112885;28;20016;-50
2022/07/22 06:26:16;;;;;;;;;;;21.80;99.30;;;;;;5113200;28;20004;-51
2022/07/22 06:28:41;;;;;;;;;;;21.70;99.40;;;;;;5113367;28;19942;-48
2022/07/22 06:31:07;;;;;;;;;;;21.80;99.30;;;;;;5113169;28;19912;-51
2022/07/22 06:33:33;;;;;;;;;;;22.00;98.60;;;;;;5112897;28;19911;-55
2022/07/22 06:35:58;;;;;;;;;;;22.10;98.50;;;;;;5112600;28;19919;-50
2022/07/22 06:38:24;;;;;;;;;;;21.80;98.90;;;;;;5112514;28;19918;-51
2022/07/22 06:40:49;;;;;;;;;;;21.70;99.10;;;;;;5113620;28;20321;-56
2022/07/22 06:43:15;;;;;;;;;;;21.60;99.30;;;;;;5115581;28;20028;-49
2022/07/22 06:45:41;;;;;;;;;;;21.70;98.80;;;;;;5115081;28;19921;-49
2022/07/22 06:48:06;;;;;;;;;;;21.80;98.80;;;;;;5115173;28;19912;-51
2022/07/22 06:50:32;;;;;;;;;;;22.00;98.50;;;;;;5114564;28;19911;-48
2022/07/22 06:52:57;;;;;;;;;;;22.00;98.50;;;;;;5133276;28;19998;-48
2022/07/22 06:55:23;;;;;;;;;;;22.00;98.40;;;;;;5133390;28;20378;-49
2022/07/22 06:57:48;;;;;;;;;;;22.20;98.00;;;;;;5133342;28;20313;-50
2022/07/22 07:00:14;;;;;;;;;;;22.40;98.00;;;;;;5115481;28;20479;-47
2022/07/22 07:02:40;;;;;;;;;;;22.30;97.90;;;;;;5115112;28;19951;-50
2022/07/22 07:05:05;;;;;;;;;;;22.40;97.40;;;;;;5133876;28;19912;-52
2022/07/22 07:07:31;;;;;;;;;;;22.50;97.30;;;;;;5133187;28;20017;-51
2022/07/22 07:09:56;;;;;;;;;;;22.90;96.30;;;;;;5129300;27;19912;-50
2022/07/22 07:12:22;;;;;;;;;;;22.90;95.50;;;;;;5121521;28;20457;-52
2022/07/22 07:14:47;;;;;;;;;;;23.00;95.60;;;;;;5133991;28;19911;-54
2022/07/22 07:17:15;;;;;;;;;;;23.00;95.70;;;;;;5115133;28;19946;-53
2022/07/22 07:19:41;;;;;;;;;;;22.90;95.90;;;;;;5133552;27;19911;-50
2022/07/22 07:22:06;;;;;;;;;;;22.80;95.90;;;;;;5135566;27;19911;-54
2022/07/22 07:24:32;;;;;;;;;;;22.70;96.00;;;;;;5136356;27;20014;-53
2022/07/22 07:26:57;;;;;;;;;;;22.60;96.30;;;;;;5136229;27;20044;-54
2022/07/22 07:29:23;;;;;;;;;;;22.80;96.10;;;;;;5136739;27;20048;-50
2022/07/22 07:31:48;;;;;;;;;;;23.00;95.80;;;;;;5137821;27;20350;-50
2022/07/22 07:34:14;;;;;;;;;;;23.00;95.80;;;;;;5137251;27;19918;-51
2022/07/22 07:36:40;;;;;;;;;;;22.80;95.70;;;;;;5136934;27;19908;-54
2022/07/22 07:39:06;;;;;;;;;;;22.80;95.60;;;;;;5137016;27;19919;-50
2022/07/22 07:41:31;;;;;;;;;;;22.80;95.40;;;;;;5137911;27;20351;-51
2022/07/22 07:43:57;;;;;;;;;;;22.90;95.50;;;;;;5129678;27;19911;-51
2022/07/22 07:46:22;;;;;;;;;;;23.30;95.20;;;;;;5116908;28;19928;-52
2022/07/22 07:48:48;;;;;;;;;;;23.30;95.30;;;;;;5116992;28;19931;-51
2022/07/22 07:51:14;;;;;;;;;;;23.40;95.20;;;;;;5117761;28;19941;-49
2022/07/22 07:53:39;;;;;;;;;;;23.30;95.40;;;;;;5117927;28;19919;-53
2022/07/22 07:56:05;;;;;;;;;;;23.40;95.10;;;;;;5098913;28;19915;-54
2022/07/22 07:58:31;;;;;;;;;;;23.00;95.30;;;;;;5100654;28;19908;-54
2022/07/22 08:00:56;;;;;;;;;;;23.20;95.30;;;;;;5116843;28;19912;-53
2022/07/22 08:03:22;;;;;;;;;;;23.30;94.80;;;;;;5117013;28;19915;-52
2022/07/22 08:05:47;;;;;;;;;;;23.40;95.10;;;;;;5116215;28;19907;-48
2022/07/22 08:08:13;;;;;;;;;;;23.50;94.70;;;;;;5116619;28;19930;-54
2022/07/22 08:10:39;;;;;;;;;;;23.50;94.60;;;;;;5116231;28;19907;-47
2022/07/22 08:13:04;;;;;;;;;;;23.40;94.60;;;;;;5116095;28;20000;-52
2022/07/22 08:15:30;;;;;;;;;;;23.40;94.40;;;;;;5117037;28;19914;-52
2022/07/22 08:17:56;;;;;;;;;;;23.30;94.30;;;;;;5098161;28;19919;-51
2022/07/22 08:20:22;;;;;;;;;;;23.50;94.30;;;;;;5114822;28;19952;-50
2022/07/22 08:22:48;;;;;;;;;;;23.60;93.90;;;;;;5115454;28;19912;-48
2022/07/22 08:25:14;;;;;;;;;;;23.70;93.50;;;;;;5115510;28;20256;-50
2022/07/22 08:27:39;;;;;;;;;;;23.70;93.70;;;;;;5115152;28;19922;-50
2022/07/22 08:30:06;;;;;;;;;;;23.80;93.40;;;;;;5115237;28;19926;-51
2022/07/22 08:32:32;;;;;;;;;;;24.20;93.00;;;;;;5115699;28;19918;-51
2022/07/22 08:34:58;;;;;;;;;;;24.30;92.60;;;;;;5115356;28;19915;-51
2022/07/22 08:37:23;;;;;;;;;;;24.00;92.70;;;;;;5096573;28;19908;-50
2022/07/22 08:39:49;;;;;;;;;;;23.40;93.40;;;;;;5096717;28;19912;-48
2022/07/22 08:42:15;;;;;;;;;;;23.30;93.80;;;;;;5115297;28;19912;-50
2022/07/22 08:44:40;;;;;;;;;;;23.40;93.70;;;;;;5130381;27;19918;-56
2022/07/22 08:47:06;;;;;;;;;;;23.50;93.70;;;;;;5135947;27;19907;-47
2022/07/22 08:49:31;;;;;;;;;;;23.40;93.60;;;;;;5135517;27;19911;-48
2022/07/22 08:51:57;;;;;;;;;;;23.80;93.30;;;;;;5135373;27;19912;-49
2022/07/22 08:54:23;;;;;;;;;;;24.10;92.90;;;;;;5135063;27;19919;-55
2022/07/22 08:56:49;;;;;;;;;;;24.00;92.60;;;;;;5134658;27;19911;-47
2022/07/22 08:59:15;;;;;;;;;;;24.00;92.70;;;;;;5135107;27;19911;-50
2022/07/22 09:02:00;;;;;;;;;;;24.20;92.90;;;;;;5134966;27;19934;-52
2022/07/22 09:04:26;;;;;;;;;;;24.10;92.90;;;;;;5135113;27;19907;-49
2022/07/22 09:06:51;;;;;;;;;;;24.40;92.50;;;;;;5135096;27;20370;-51
2022/07/22 09:09:28;;;;;;;;;;;24.30;93.80;;;;;;5135108;27;20006;-52
2022/07/22 09:12:03;;;;;;;;;;;23.60;94.90;;;;;;5116274;27;19958;-49
2022/07/22 09:14:42;;;;;;;;;;;23.60;95.00;;;;;;5135117;27;19907;-50
2022/07/22 09:17:21;;;;;;;;;;;23.40;95.90;;;;;;5134827;27;19952;-54
2022/07/22 09:19:47;;;;;;;;;;;23.10;96.60;;;;;;5134779;27;19907;-49
2022/07/22 09:22:12;;;;;;;;;;;23.20;97.20;;;;;;5134578;27;19922;-51
2022/07/22 09:24:38;;;;;;;;;;;23.20;97.50;;;;;;5134672;27;20389;-51
2022/07/22 09:27:06;;;;;;;;;;;22.90;98.00;;;;;;5134353;27;20371;-52
2022/07/22 09:29:31;;;;;;;;;;;22.80;98.50;;;;;;5134644;27;19964;-50
2022/07/22 09:31:57;;;;;;;;;;;23.00;98.10;;;;;;5135294;27;20013;-48
2022/07/22 09:34:29;;;;;;;;;;;23.10;98.00;;;;;;5134295;27;20932;-53
2022/07/22 09:36:55;;;;;;;;;;;23.10;97.60;;;;;;5135032;27;19963;-50
2022/07/22 09:39:31;;;;;;;;;;;23.30;97.70;;;;;;5134764;27;19908;-53
2022/07/22 09:41:58;;;;;;;;;;;23.30;97.40;;;;;;5133668;27;19956;-51
2022/07/22 09:44:23;;;;;;;;;;;23.50;97.30;;;;;;5121465;27;20381;-48
2022/07/22 09:46:52;;;;;;;;;;;23.40;97.30;;;;;;5113965;28;19915;-59
2022/07/22 09:49:34;;;;;;;;;;;23.60;96.80;;;;;;5116698;28;20303;-54
2022/07/22 09:52:01;;;;;;;;;;;23.40;97.10;;;;;;5114025;28;19914;-55
2022/07/22 09:54:28;;;;;;;;;;;23.60;96.40;;;;;;5113727;28;20562;-52
2022/07/22 09:56:53;;;;;;;;;;;23.60;96.20;;;;;;5112680;28;20362;-53
2022/07/22 09:59:19;;;;;;;;;;;23.60;96.60;;;;;;5113789;28;19908;-51
2022/07/22 10:01:45;;;;;;;;;;;23.60;96.30;;;;;;5114088;28;20492;-53
2022/07/22 10:04:12;;;;;;;;;;;23.70;95.80;;;;;;5113237;28;19908;-55
2022/07/22 10:06:38;;;;;;;;;;;23.70;96.00;;;;;;5094483;28;20048;-52
2022/07/22 10:09:04;;;;;;;;;;;23.60;96.30;;;;;;5112782;28;19961;-54
2022/07/22 10:11:30;;;;;;;;;;;23.60;96.30;;;;;;5113812;28;19914;-55
2022/07/22 10:13:56;;;;;;;;;;;23.60;96.10;;;;;;5134032;27;19911;-54
2022/07/22 10:16:24;;;;;;;;;;;23.60;96.00;;;;;;5115406;28;19919;-54
2022/07/22 10:18:49;;;;;;;;;;;23.80;95.40;;;;;;5134352;27;19912;-52
2022/07/22 10:21:17;;;;;;;;;;;24.10;95.30;;;;;;5134364;27;19926;-51
2022/07/22 10:24:01;;;;;;;;;;;24.30;94.80;;;;;;5134206;27;19919;-53
2022/07/22 10:26:53;;;;;;;;;;;24.40;94.10;;;;;;5133426;28;20006;-55
2022/07/22 10:29:38;;;;;;;;;;;24.50;94.30;;;;;;5128938;27;19953;-52
2022/07/22 10:32:16;;;;;;;;;;;24.60;94.20;;;;;;5133648;28;19907;-52
2022/07/22 10:35:02;;;;;;;;;;;24.50;93.80;;;;;;5115271;28;20425;-57
2022/07/22 10:37:34;;;;;;;;;;;24.30;94.20;;;;;;5133289;28;19926;-55
2022/07/22 10:40:12;;;;;;;;;;;24.50;94.00;;;;;;5134050;27;19916;-54
2022/07/22 10:43:05;;;;;;;;;;;24.50;93.70;;;;;;5133711;28;19919;-52
2022/07/22 10:45:32;;;;;;;;;;;25.00;93.10;;;;;;5088898;28;20011;-52
2022/07/22 10:47:59;;;;;;;;;;;25.20;92.20;;;;;;5057921;28;19916;-51
2022/07/22 10:50:43;;;;;;;;;;;25.30;92.20;;;;;;5092694;28;20368;-54
2022/07/22 10:53:11;;;;;;;;;;;25.40;91.70;;;;;;5093171;28;19915;-57
2022/07/22 10:55:38;;;;;;;;;;;25.40;91.90;;;;;;5092324;28;19908;-51
2022/07/22 10:58:23;;;;;;;;;;;25.00;92.60;;;;;;5096511;28;20298;-51
2022/07/22 11:00:49;;;;;;;;;;;25.20;92.20;;;;;;5095655;28;19979;-51
2022/07/22 11:03:24;;;;;;;;;;;25.00;92.00;;;;;;5096731;28;19952;-53
2022/07/22 11:05:49;;;;;;;;;;;25.20;91.60;;;;;;5096692;28;19914;-53
2022/07/22 11:08:15;;;;;;;;;;;25.40;91.40;;;;;;5096728;28;20027;-55
2022/07/22 11:10:46;;;;;;;;;;;25.40;91.50;;;;;;5100628;28;20260;-48
2022/07/22 11:13:12;;;;;;;;;;;25.30;91.60;;;;;;5108881;28;19919;-52
2022/07/22 11:15:37;;;;;;;;;;;25.30;91.70;;;;;;5116204;28;19911;-49
2022/07/22 11:18:03;;;;;;;;;;;25.40;91.40;;;;;;5116123;28;20290;-50
2022/07/22 11:20:29;;;;;;;;;;;25.40;91.40;;;;;;5116663;28;20522;-51
2022/07/22 11:22:55;;;;;;;;;;;25.60;91.40;;;;;;5099024;28;20041;-51
2022/07/22 11:25:25;;;;;;;;;;;25.50;91.40;;;;;;5098129;28;20325;-48
2022/07/22 11:27:52;;;;;;;;;;;25.20;91.30;;;;;;5116525;28;19919;-51
2022/07/22 11:30:17;;;;;;;;;;;25.10;91.60;;;;;;5116170;28;19965;-51
2022/07/22 11:32:43;;;;;;;;;;;25.30;91.30;;;;;;5116692;28;19916;-52
2022/07/22 11:35:12;;;;;;;;;;;25.20;91.10;;;;;;5116093;28;19912;-52
2022/07/22 11:37:37;;;;;;;;;;;25.20;91.20;;;;;;5115767;28;19918;-57
2022/07/22 11:40:05;;;;;;;;;;;25.40;91.10;;;;;;5115486;28;20010;-53
2022/07/22 11:42:31;;;;;;;;;;;25.60;90.90;;;;;;5116174;28;19995;-51
2022/07/22 11:44:57;;;;;;;;;;;25.50;91.00;;;;;;5132767;27;20425;-52
2022/07/22 11:47:26;;;;;;;;;;;25.60;90.70;;;;;;5135963;27;19915;-50
2022/07/22 11:49:51;;;;;;;;;;;25.70;90.20;;;;;;5136586;27;20011;-53
2022/07/22 11:52:17;;;;;;;;;;;25.80;90.10;;;;;;5136288;27;19956;-50
2022/07/22 11:54:43;;;;;;;;;;;26.00;89.20;;;;;;5136059;27;19907;-46
2022/07/22 11:57:10;;;;;;;;;;;26.10;89.10;;;;;;5135364;27;20441;-52
2022/07/22 11:59:35;;;;;;;;;;;25.90;89.50;;;;;;5135751;27;19912;-49
2022/07/22 12:02:02;;;;;;;;;;;25.50;90.30;;;;;;5136925;27;19912;-51
2022/07/22 12:04:28;;;;;;;;;;;25.40;90.40;;;;;;5136121;27;19916;-50
2022/07/22 12:06:54;;;;;;;;;;;25.40;90.40;;;;;;5134967;27;19914;-49
2022/07/22 12:09:22;;;;;;;;;;;25.70;90.00;;;;;;5136531;27;19912;-51
2022/07/22 12:11:48;;;;;;;;;;;26.00;89.50;;;;;;5119377;27;20303;-49
2022/07/22 12:14:15;;;;;;;;;;;26.30;88.40;;;;;;5136240;27;19930;-47
2022/07/22 12:16:41;;;;;;;;;;;26.30;88.20;;;;;;5135599;27;19912;-51
2022/07/22 12:19:08;;;;;;;;;;;26.60;87.30;;;;;;5136217;27;19928;-51
2022/07/22 12:21:35;;;;;;;;;;;26.70;86.30;;;;;;5136225;27;19911;-48
2022/07/22 12:24:05;;;;;;;;;;;26.30;87.90;;;;;;5135304;27;19915;-53
2022/07/22 12:26:41;;;;;;;;;;;26.10;88.50;;;;;;5135365;27;19983;-52
2022/07/22 12:29:25;;;;;;;;;;;26.00;88.30;;;;;;5135767;27;19915;-52
2022/07/22 12:31:52;;;;;;;;;;;26.20;88.30;;;;;;5135702;27;19908;-51
2022/07/22 12:34:29;;;;;;;;;;;26.30;87.80;;;;;;5136067;27;20351;-54
2022/07/22 12:36:55;;;;;;;;;;;26.60;87.50;;;;;;5135136;27;19941;-49
2022/07/22 12:39:20;;;;;;;;;;;27.20;86.20;;;;;;5136011;27;19908;-48
2022/07/22 12:41:51;;;;;;;;;;;27.60;84.00;;;;;;5135350;27;19959;-51
2022/07/22 12:44:26;;;;;;;;;;;27.70;83.50;;;;;;5105924;28;20371;-50
2022/07/22 12:46:52;;;;;;;;;;;27.40;83.50;;;;;;5115431;28;19908;-46
2022/07/22 12:49:19;;;;;;;;;;;27.60;83.50;;;;;;5115614;28;19922;-50
2022/07/22 12:52:03;;;;;;;;;;;27.80;82.80;;;;;;5097052;28;19912;-49
2022/07/22 12:54:29;;;;;;;;;;;27.90;82.80;;;;;;5114735;28;19907;-48
2022/07/22 12:56:55;;;;;;;;;;;28.00;82.90;;;;;;5113769;28;19912;-50
2022/07/22 12:59:21;;;;;;;;;;;28.10;82.00;;;;;;5115060;28;19918;-49
2022/07/22 13:01:48;;;;;;;;;;;28.10;81.00;;;;;;5115085;28;19933;-52
2022/07/22 13:04:14;;;;;;;;;;;27.70;81.50;;;;;;5115546;28;19916;-51
2022/07/22 13:06:39;;;;;;;;;;;27.70;82.50;;;;;;5115132;28;19908;-49
2022/07/22 13:09:05;;;;;;;;;;;27.90;81.40;;;;;;5115280;28;19969;-50
2022/07/22 13:11:31;;;;;;;;;;;28.20;81.50;;;;;;5117404;27;19912;-53
2022/07/22 13:13:56;;;;;;;;;;;28.30;79.80;;;;;;5114599;28;20011;-55
2022/07/22 13:16:23;;;;;;;;;;;28.20;79.90;;;;;;5095796;28;19911;-48
2022/07/22 13:18:50;;;;;;;;;;;28.10;80.70;;;;;;5114055;28;19954;-56
2022/07/22 13:21:16;;;;;;;;;;;28.30;79.80;;;;;;5114573;28;19938;-50
2022/07/22 13:23:41;;;;;;;;;;;28.30;80.00;;;;;;5113975;28;20379;-50
2022/07/22 13:26:07;;;;;;;;;;;28.30;79.60;;;;;;5114512;28;20015;-54
2022/07/22 13:28:32;;;;;;;;;;;28.50;78.70;;;;;;5115729;28;20364;-48
2022/07/22 13:30:58;;;;;;;;;;;28.70;78.70;;;;;;5096505;28;19918;-47
2022/07/22 13:33:23;;;;;;;;;;;28.80;76.90;;;;;;5114645;28;19912;-52
2022/07/22 13:35:49;;;;;;;;;;;28.80;77.00;;;;;;5114379;28;19994;-47
2022/07/22 13:38:16;;;;;;;;;;;28.20;77.90;;;;;;5113784;28;19916;-47
2022/07/22 13:40:42;;;;;;;;;;;28.10;78.50;;;;;;5095705;28;19918;-50
2022/07/22 13:43:08;;;;;;;;;;;27.90;79.50;;;;;;5116079;27;19912;-47
2022/07/22 13:45:33;;;;;;;;;;;27.70;79.60;;;;;;5134494;27;19921;-53
2022/07/22 13:47:59;;;;;;;;;;;27.70;79.10;;;;;;5134337;27;19923;-47
2022/07/22 13:50:24;;;;;;;;;;;27.60;79.60;;;;;;5134464;27;20377;-49
2022/07/22 13:52:50;;;;;;;;;;;27.90;79.40;;;;;;5134399;27;19919;-52
2022/07/22 13:55:16;;;;;;;;;;;28.00;78.60;;;;;;5134104;27;19972;-52
2022/07/22 13:57:42;;;;;;;;;;;27.70;79.10;;;;;;5133763;27;19921;-51
2022/07/22 14:00:08;;;;;;;;;;;27.80;78.90;;;;;;5134444;27;19987;-47
2022/07/22 14:02:33;;;;;;;;;;;27.60;79.30;;;;;;5134102;27;19912;-50
2022/07/22 14:04:59;;;;;;;;;;;27.90;78.60;;;;;;5134446;27;20400;-48
2022/07/22 14:07:24;;;;;;;;;;;28.20;78.00;;;;;;5133264;27;19918;-52
2022/07/22 14:09:50;;;;;;;;;;;28.20;77.50;;;;;;5131134;27;20009;-53
2022/07/22 14:12:16;;;;;;;;;;;28.00;78.00;;;;;;5120572;27;20310;-46
2022/07/22 14:14:42;;;;;;;;;;;28.10;77.30;;;;;;5134992;27;20040;-47